Terminal Aerodrome Forecast
Issued by NWS

Home | Current Version | Previous Version | Text Only | Print | Product List | Glossary On
Versions: 1 2 3 4 5 6 7 8 9 10 11 12 13 14 15 16 17 18 19 20 21 22 23 24 25 26
000
FTUS43 KMKX 272320
TAFUES
TAF
KUES 272320Z 2800/2824 31004KT P6SM -SHRA SCT025 OVC045
     FM280700 32003KT 6SM -SHRA SCT008 OVC015
     FM281100 32003KT P6SM VCSH BKN008 OVC015
     FM281300 34004KT P6SM VCSH BKN015 OVC020
     FM281600 01007KT P6SM VCSH SCT015 BKN025
     FM281800 02009G18KT P6SM SCT015 BKN035
     FM282200 03012G21KT P6SM SCT025 BKN070=

USA.gov is the U.S. government's official web portal to all federal, state and local government web resources and services.